Pagina principale
METAR-TAF:

METAR-TAF

Aeroporti :

Piattaforma petrolifera

P11-b, Paesi Bassi

latitudine: 52-21-36N, longitudine: 3-20-30E, altezza: 24 m

Osservazione

Il bollettino è stato emesso 11 minuti fa, alle 00:55 UTC
Vento 19 kt da est/nord-est
Temperature 16°C
Umidità 88%
Pressione 1008 hPa
Visibilità 10 km o più

METAR: EHPG 190055Z AUTO 06019KT 9999 NSC 16/14 Q1008 RERA W///H///

Ora: 03:06 (01:06 UTC)


TAF: mancante

Osservazioni e previsioni meteorologiche di più di 4000 aeroporti (messaggi METAR e TAF).

Le stazioni disponibili sono rappresentate dai dischi gialli e rossi sulla carta.

Puntare il mouse per vedere il nome della stazione.

Clicca sopra per visualizzare le osservazioni e previsioni meteorologiche.

Per cambiare la mappa : fare clic sui pulsanti verdi con una croce nera per ingrandire, il pulsante verde con un trattino per diminuire, o sulla freccia verde per le mappe adiacenti.


METAR-TAF: